Carlos Cunha — CUET2 — position and weather

sailwx.info

Track history (hours):
 
Tides and Currents Weather Stations Pressure Air Temp Water Temp Dewpoint Dewpoint Depression Visibility Wind Speed Wind Dir Waves Ship Positions

Carlos Cunha

Last reported at 2018-Jun-08 05:48 UTC. Time now 2018-Jun-18 03:38 UTC.
Position N 38°59' W 010°09'.
Warning: this ship's position is 9 days out of date.

Length 21 m.

Type: Fishing. MMSI: 263422240.

Date/timePositionNaut miles runAvg speedWind from/ knotsBaromVisibWave heightAir tempDewpointWater temp
2018-Jun-08 05:48N 38°59' W 010°09'2 6.9
2018-Jun-08 05:29N 38°58' W 010°07'4 8.2
2018-Jun-08 05:00N 38°57' W 010°02'0 0.0
2018-Jun-08 04:30N 38°57' W 010°02'0 0.1
2018-Jun-08 04:00N 38°57' W 010°02'0 0.4
2018-Jun-08 03:30N 38°57' W 010°02'0 0.1
2018-Jun-08 03:01N 38°57' W 010°02'0 0.4
2018-Jun-08 02:26N 38°57' W 010°02'0 0.2
2018-Jun-08 02:00N 38°57' W 010°02'1 1.1
2018-Jun-08 01:30N 38°56' W 010°02'0 0.1
2018-Jun-08 00:40N 38°56' W 010°02'8 0.8
2018-Jun-07 14:42N 39°04' W 010°06'1 1.3
2018-Jun-07 14:13N 39°04' W 010°06'2 7.9
2018-Jun-07 14:00N 39°03' W 010°04'4 5.6
2018-Jun-07 13:21N 38°59' W 010°03'1 3.9
2018-Jun-07 13:00N 38°58' W 010°03'4 5.0
2018-Jun-07 12:18N 38°55' W 010°02'76 1.9
2018-Jun-05 19:16N 37°45' W 009°23'17 1.6
2018-Jun-05 08:33N 37°35' W 009°06'0 0.3
2018-Jun-05 07:18N 37°35' W 009°06'0 0.5
2018-Jun-05 06:58N 37°35' W 009°06'2 0.1
2018-Jun-04 10:24N 37°37' W 009°06'2 4.7
2018-Jun-04 09:58N 37°39' W 009°06'11 1.3
2018-Jun-04 01:46N 37°47' W 009°15'4 8.5
2018-Jun-04 01:19N 37°50' W 009°19'  
Track history (hours):
 
Tides and Currents Weather Stations Pressure Air Temp Water Temp Dewpoint Dewpoint Depression Visibility Wind Speed Wind Dir Waves Ship Positions

Carlos Cunha

Last reported at 2018-Jun-08 05:48 UTC. Time now 2018-Jun-18 03:38 UTC.
Position N 38°59' W 010°09'.
Warning: this ship's position is 9 days out of date.

Length 21 m.

Type: Fishing. MMSI: 263422240.

Date/timePositionNaut miles runAvg speedWind from/ knotsBaromVisibWave heightAir tempDewpointWater temp
2018-Jun-08 05:48N 38°59' W 010°09'2 6.9
2018-Jun-08 05:29N 38°58' W 010°07'4 8.2
2018-Jun-08 05:00N 38°57' W 010°02'0 0.0
2018-Jun-08 04:30N 38°57' W 010°02'0 0.1
2018-Jun-08 04:00N 38°57' W 010°02'0 0.4
2018-Jun-08 03:30N 38°57' W 010°02'0 0.1
2018-Jun-08 03:01N 38°57' W 010°02'0 0.4
2018-Jun-08 02:26N 38°57' W 010°02'0 0.2
2018-Jun-08 02:00N 38°57' W 010°02'1 1.1
2018-Jun-08 01:30N 38°56' W 010°02'0 0.1
2018-Jun-08 00:40N 38°56' W 010°02'8 0.8
2018-Jun-07 14:42N 39°04' W 010°06'1 1.3
2018-Jun-07 14:13N 39°04' W 010°06'2 7.9
2018-Jun-07 14:00N 39°03' W 010°04'4 5.6
2018-Jun-07 13:21N 38°59' W 010°03'1 3.9
2018-Jun-07 13:00N 38°58' W 010°03'4 5.0
2018-Jun-07 12:18N 38°55' W 010°02'76 1.9
2018-Jun-05 19:16N 37°45' W 009°23'17 1.6
2018-Jun-05 08:33N 37°35' W 009°06'0 0.3
2018-Jun-05 07:18N 37°35' W 009°06'0 0.5
2018-Jun-05 06:58N 37°35' W 009°06'2 0.1
2018-Jun-04 10:24N 37°37' W 009°06'2 4.7
2018-Jun-04 09:58N 37°39' W 009°06'11 1.3
2018-Jun-04 01:46N 37°47' W 009°15'4 8.5
2018-Jun-04 01:19N 37°50' W 009°19'  

Dump ship's entire track history